createdAt,value
2018-12-27T04:29:14.046Z,28.63
2018-12-27T04:31:55.778Z,26.20
2018-12-27T04:34:37.512Z,28.93
2018-12-27T04:37:19.656Z,23.07
2018-12-27T04:40:01.394Z,26.13
2018-12-27T04:42:43.603Z,28.53
2018-12-27T04:45:25.373Z,29.50
2018-12-27T04:48:06.997Z,30.13
2018-12-27T04:50:48.755Z,29.57
2018-12-27T04:53:30.732Z,25.70
2018-12-27T04:56:01.230Z,27.50
2018-12-27T04:58:43.698Z,28.97
2018-12-27T05:01:25.725Z,29.00
2018-12-27T05:04:07.974Z,26.03
2018-12-27T05:06:49.947Z,25.73
2018-12-27T05:09:30.293Z,29.07
2018-12-27T05:12:12.631Z,29.87
2018-12-27T05:14:54.554Z,30.70
2018-12-27T05:17:36.276Z,30.30
2018-12-27T05:20:17.963Z,28.50
2018-12-27T05:22:48.229Z,28.37
2018-12-27T05:25:30.630Z,25.43
2018-12-27T05:28:13.092Z,28.57
2018-12-27T05:30:54.936Z,33.33
2018-12-27T05:33:38.138Z,27.27
2018-12-27T05:36:21.053Z,33.53
2018-12-27T05:39:02.629Z,29.03
2018-12-27T05:41:44.482Z,28.50
2018-12-27T05:44:26.252Z,25.73
2018-12-27T05:47:09.428Z,27.87
2018-12-27T05:49:51.797Z,28.33
2018-12-27T05:52:22.092Z,26.97
2018-12-27T05:55:11.456Z,25.63
2018-12-27T05:57:53.009Z,30.73
2018-12-27T06:00:34.959Z,33.13
2018-12-27T06:03:17.077Z,30.97
2018-12-27T06:05:59.179Z,31.17
2018-12-27T06:08:41.229Z,28.80
2018-12-27T06:11:23.615Z,30.17
2018-12-27T06:14:05.746Z,36.07
2018-12-27T06:16:47.854Z,33.53
2018-12-27T06:19:30.104Z,34.63
2018-12-27T06:22:12.293Z,30.27
2018-12-27T06:24:56.136Z,32.20
2018-12-27T06:27:38.103Z,30.13
2018-12-27T06:30:20.382Z,32.20
2018-12-27T06:33:02.524Z,32.50
2018-12-27T06:35:44.858Z,34.13
2018-12-27T06:38:27.162Z,30.67
2018-12-27T06:41:08.168Z,32.03
2018-12-27T06:43:49.869Z,31.97
2018-12-27T06:46:32.034Z,30.00
2018-12-27T06:49:12.393Z,29.13
2018-12-27T06:51:53.093Z,28.17
2018-12-27T06:54:35.052Z,36.27
2018-12-27T06:57:17.277Z,31.57
2018-12-27T06:59:59.148Z,35.13
2018-12-27T07:02:39.606Z,33.00
2018-12-27T07:05:09.879Z,37.87
2018-12-27T07:07:52.051Z,28.73
2018-12-27T07:10:34.281Z,33.93
2018-12-27T07:13:16.452Z,30.40
2018-12-27T07:15:58.336Z,29.50
2018-12-27T07:18:28.646Z,30.60
2018-12-27T07:21:18.089Z,29.23
2018-12-27T07:24:00.384Z,30.83
2018-12-27T07:26:42.469Z,28.30
2018-12-27T07:29:24.705Z,22.67
2018-12-27T07:32:06.966Z,27.77
2018-12-27T07:34:56.246Z,29.80
2018-12-27T07:37:33.511Z,26.10
2018-12-27T07:40:05.446Z,29.60
2018-12-27T07:42:48.568Z,29.50
2018-12-27T07:45:30.874Z,27.40
2018-12-27T07:48:13.845Z,27.63
2018-12-27T07:50:44.173Z,33.43
2018-12-27T07:53:15.341Z,32.07
2018-12-27T07:56:05.607Z,37.00
2018-12-27T07:58:47.429Z,32.80
2018-12-27T08:01:29.976Z,28.33
2018-12-27T08:04:12.726Z,29.00
2018-12-27T08:06:54.886Z,25.50
2018-12-27T08:09:37.056Z,24.63
2018-12-27T08:12:19.001Z,21.00
2018-12-27T08:14:49.393Z,24.97
2018-12-27T08:17:38.742Z,29.80
2018-12-27T08:20:20.640Z,23.77
2018-12-27T08:23:02.762Z,25.90
2018-12-27T08:25:44.953Z,28.43
2018-12-27T08:28:26.899Z,25.33
2018-12-27T08:31:09.228Z,29.23
2018-12-27T08:33:51.678Z,32.37
2018-12-27T08:36:34.441Z,32.13
2018-12-27T08:39:16.402Z,27.93
2018-12-27T08:41:58.290Z,35.87
2018-12-27T08:44:42.322Z,32.50
2018-12-27T08:47:23.936Z,28.73
2018-12-27T08:50:05.917Z,32.40
2018-12-27T08:52:47.579Z,29.93
2018-12-27T08:55:29.610Z,31.80
2018-12-27T08:58:11.774Z,30.23
2018-12-27T09:00:53.570Z,26.33
2018-12-27T09:03:35.850Z,28.03
2018-12-27T09:06:18.178Z,28.20
2018-12-27T09:09:00.369Z,29.07
2018-12-27T09:11:30.698Z,33.30
2018-12-27T09:14:01.165Z,33.47
2018-12-27T09:16:43.830Z,32.50
2018-12-27T09:19:26.298Z,30.73
2018-12-27T09:22:08.050Z,34.03
2018-12-27T09:24:50.228Z,28.77
2018-12-27T09:27:32.195Z,31.90
2018-12-27T09:30:14.472Z,32.63
2018-12-27T09:32:56.625Z,33.10
2018-12-27T09:35:38.984Z,35.90
2018-12-27T09:38:21.434Z,36.10
2018-12-27T09:41:03.642Z,35.43
2018-12-27T09:43:45.549Z,35.10
2018-12-27T09:46:27.434Z,37.07
2018-12-27T09:48:58.692Z,33.27
2018-12-27T09:51:29.486Z,38.13
2018-12-27T09:54:19.486Z,34.43
2018-12-27T09:57:01.878Z,34.57
2018-12-27T09:59:43.936Z,38.63
2018-12-27T10:02:25.993Z,32.63
2018-12-27T10:05:08.096Z,35.13
2018-12-27T10:07:50.041Z,36.70
2018-12-27T10:10:32.224Z,31.40
2018-12-27T10:13:13.881Z,41.43
2018-12-27T10:15:56.395Z,38.27
2018-12-27T10:18:38.743Z,44.03
2018-12-27T10:21:21.171Z,43.43
2018-12-27T10:24:04.854Z,36.40
2018-12-27T10:26:47.073Z,33.57
2018-12-27T10:29:29.740Z,35.33
2018-12-27T10:32:12.120Z,38.53
2018-12-27T10:34:54.078Z,34.87
2018-12-27T10:37:37.898Z,36.80
2018-12-27T10:40:20.844Z,36.93
2018-12-27T10:43:03.498Z,37.57
2018-12-27T10:45:45.546Z,36.30
2018-12-27T10:48:27.843Z,36.77
2018-12-27T10:51:09.654Z,33.93
2018-12-27T10:53:51.223Z,37.50
2018-12-27T10:56:33.634Z,40.00
2018-12-27T10:59:16.208Z,37.27
2018-12-27T11:01:58.698Z,46.50
2018-12-27T11:04:40.864Z,46.97
2018-12-27T11:07:22.971Z,41.90
2018-12-27T11:10:04.946Z,38.93
2018-12-27T11:12:49.069Z,41.80
2018-12-27T11:15:31.054Z,45.00
2018-12-27T11:18:13.226Z,42.07
2018-12-27T11:20:55.141Z,43.23
2018-12-27T11:23:37.734Z,43.60
2018-12-27T11:26:19.928Z,42.33
2018-12-27T11:29:01.890Z,45.00
2018-12-27T11:31:32.570Z,39.67
2018-12-27T11:34:14.266Z,45.37
2018-12-27T11:36:56.497Z,61.83
2018-12-27T11:39:38.282Z,55.23
2018-12-27T11:42:09.733Z,73.23
2018-12-27T11:44:51.677Z,44.60
2018-12-27T11:47:33.944Z,40.20
2018-12-27T11:50:04.439Z,42.67
2018-12-27T11:52:53.778Z,36.63
2018-12-27T11:55:35.919Z,38.57
2018-12-27T11:58:18.072Z,42.90
2018-12-27T12:01:00.319Z,37.00
2018-12-27T12:03:42.250Z,37.60
2018-12-27T12:06:24.582Z,31.23
2018-12-27T12:09:07.087Z,34.03
2018-12-27T12:11:49.035Z,36.60
2018-12-27T12:14:32.022Z,34.73
2018-12-27T12:17:14.078Z,36.50
2018-12-27T12:19:56.204Z,29.23
2018-12-27T12:22:40.858Z,33.70
2018-12-27T12:25:22.766Z,37.83
2018-12-27T12:28:05.026Z,30.30
2018-12-27T12:30:47.243Z,34.30
2018-12-27T12:33:29.451Z,30.40
2018-12-27T12:36:11.352Z,26.83
2018-12-27T12:38:53.588Z,33.90
2018-12-27T12:41:35.454Z,33.67
2018-12-27T12:44:16.108Z,31.60
2018-12-27T12:46:58.273Z,26.53
2018-12-27T12:49:40.493Z,26.40
2018-12-27T12:52:22.611Z,27.53
2018-12-27T12:55:04.721Z,27.73
2018-12-27T12:57:46.396Z,26.87
2018-12-27T13:00:28.674Z,28.03
2018-12-27T13:03:10.423Z,31.27
2018-12-27T13:05:53.124Z,26.73
2018-12-27T13:08:35.249Z,26.07
2018-12-27T13:11:16.831Z,25.97
2018-12-27T13:13:58.965Z,23.43
2018-12-27T13:16:41.836Z,25.17
2018-12-27T13:19:26.537Z,25.97
2018-12-27T13:22:08.958Z,24.97
2018-12-27T13:24:50.797Z,21.83
2018-12-27T13:27:32.405Z,21.60
2018-12-27T13:30:14.652Z,22.63
2018-12-27T13:32:56.713Z,29.37
2018-12-27T13:35:38.718Z,25.60
2018-12-27T13:38:21.147Z,24.10
2018-12-27T13:41:03.565Z,23.53
2018-12-27T13:43:46.670Z,24.47
2018-12-27T13:46:29.458Z,22.97
2018-12-27T13:49:12.655Z,21.77
2018-12-27T13:51:54.534Z,26.23
2018-12-27T13:54:36.686Z,23.93
2018-12-27T13:57:07.210Z,23.93
2018-12-27T13:59:49.256Z,23.90
2018-12-27T14:02:30.678Z,25.53
2018-12-27T14:05:12.783Z,21.53
2018-12-27T14:07:55.307Z,22.67
2018-12-27T14:10:38.122Z,22.10
2018-12-27T14:13:20.890Z,25.00
2018-12-27T14:16:02.915Z,20.43
2018-12-27T14:18:47.260Z,19.43
2018-12-27T14:21:29.142Z,19.47
2018-12-27T14:24:12.917Z,23.90
2018-12-27T14:26:56.665Z,27.10
2018-12-27T14:29:40.155Z,24.40
2018-12-27T14:32:22.136Z,27.87
2018-12-27T14:35:04.068Z,26.77
2018-12-27T14:37:45.922Z,29.90
2018-12-27T14:40:27.632Z,32.50
2018-12-27T14:43:10.000Z,29.10
2018-12-27T14:45:52.555Z,29.50
2018-12-27T14:48:34.487Z,27.50
2018-12-27T14:51:18.284Z,26.57
2018-12-27T14:54:00.248Z,24.83
2018-12-27T14:56:42.381Z,25.80
2018-12-27T14:59:24.215Z,26.30
2018-12-27T15:02:06.026Z,23.53
2018-12-27T15:04:47.951Z,29.83
2018-12-27T15:07:30.522Z,30.00
2018-12-27T15:10:13.102Z,25.07
2018-12-27T15:12:44.473Z,27.03
2018-12-27T15:15:34.141Z,25.57
2018-12-27T15:18:16.581Z,26.87
2018-12-27T15:20:59.559Z,27.90
2018-12-27T15:23:43.141Z,23.80
2018-12-27T15:26:25.693Z,26.30
2018-12-27T15:29:10.316Z,26.17
2018-12-27T15:31:53.534Z,31.00
2018-12-27T15:34:36.708Z,29.20
2018-12-27T15:37:21.946Z,28.10
2018-12-27T15:40:05.663Z,27.97
2018-12-27T15:42:48.548Z,27.43
2018-12-27T15:45:30.829Z,27.93
2018-12-27T15:48:14.889Z,29.83
2018-12-27T15:50:58.703Z,27.97
2018-12-27T15:53:41.892Z,30.03
2018-12-27T15:56:26.425Z,29.93
2018-12-27T15:59:09.227Z,34.13
2018-12-27T16:01:53.483Z,31.50
2018-12-27T16:04:35.959Z,29.97
2018-12-27T16:07:19.661Z,30.83
2018-12-27T16:10:01.824Z,30.67
2018-12-27T16:12:43.529Z,33.37
2018-12-27T16:15:26.863Z,31.80
2018-12-27T16:18:10.432Z,27.40
2018-12-27T16:20:53.472Z,27.53
2018-12-27T16:23:37.591Z,30.57
2018-12-27T16:26:22.567Z,31.07
2018-12-27T16:29:05.599Z,30.27
2018-12-27T16:31:48.660Z,28.40
2018-12-27T16:34:30.992Z,28.17
2018-12-27T16:37:14.531Z,25.93
2018-12-27T16:39:58.043Z,30.53
2018-12-27T16:42:41.253Z,28.80
2018-12-27T16:45:23.895Z,27.57
2018-12-27T16:48:06.086Z,31.60
2018-12-27T16:50:47.800Z,31.40
2018-12-27T16:53:30.032Z,31.70
2018-12-27T16:56:12.472Z,28.87
2018-12-27T16:58:56.497Z,35.50
2018-12-27T17:01:38.838Z,35.60
2018-12-27T17:04:21.915Z,35.20
2018-12-27T17:07:05.746Z,32.83
2018-12-27T17:09:51.048Z,32.13
2018-12-27T17:12:33.355Z,31.27
2018-12-27T17:15:15.307Z,31.00
2018-12-27T17:17:57.886Z,30.50
2018-12-27T17:20:40.381Z,31.00
2018-12-27T17:23:22.026Z,33.00
2018-12-27T17:26:05.215Z,29.73
2018-12-27T17:28:48.023Z,31.67
2018-12-27T17:31:21.162Z,32.77
2018-12-27T17:34:06.444Z,34.83
2018-12-27T17:36:49.215Z,37.67
2018-12-27T17:39:34.007Z,38.77
2018-12-27T17:42:22.311Z,35.50
2018-12-27T17:45:26.615Z,39.13
2018-12-27T17:48:11.288Z,39.63
2018-12-27T17:50:52.911Z,41.13
2018-12-27T17:53:37.532Z,42.70
2018-12-27T17:56:20.225Z,43.73
2018-12-27T17:59:03.058Z,57.07
2018-12-27T18:01:45.401Z,50.80
2018-12-27T18:04:29.069Z,39.10
2018-12-27T18:07:11.942Z,37.80
2018-12-27T18:09:54.055Z,40.80
2018-12-27T18:12:37.509Z,33.97
2018-12-27T18:15:19.724Z,30.43
2018-12-27T18:18:01.963Z,33.40
2018-12-27T18:20:45.323Z,43.20
2018-12-27T18:23:28.551Z,44.47
2018-12-27T18:26:10.421Z,47.87
2018-12-27T18:28:52.403Z,47.60
2018-12-27T18:31:37.310Z,45.87
2018-12-27T18:34:20.440Z,50.97
2018-12-27T18:37:03.617Z,51.23
2018-12-27T18:39:48.726Z,47.87
2018-12-27T18:42:32.324Z,50.37
2018-12-27T18:45:14.893Z,57.97
2018-12-27T18:47:57.144Z,46.53
2018-12-27T18:50:40.210Z,49.33
2018-12-27T18:53:23.212Z,51.40
2018-12-27T18:56:06.012Z,50.53
2018-12-27T18:58:48.175Z,54.40
2018-12-27T19:04:42.445Z,56.87
2018-12-27T19:07:26.709Z,63.40
2018-12-27T19:10:10.043Z,59.23
2018-12-27T19:12:52.991Z,64.63
2018-12-27T19:15:35.039Z,48.07
2018-12-27T19:18:17.644Z,53.33
2018-12-27T19:21:00.733Z,53.43
2018-12-27T19:23:42.990Z,50.13
2018-12-27T19:26:25.297Z,48.67
2018-12-27T19:29:07.039Z,47.33
2018-12-27T19:31:49.764Z,50.40
2018-12-27T19:34:32.315Z,48.57
2018-12-27T19:37:14.146Z,51.77
2018-12-27T19:39:58.718Z,51.40
2018-12-27T19:42:41.276Z,50.47
2018-12-27T19:45:24.032Z,51.43
2018-12-27T19:48:08.254Z,49.03
2018-12-27T19:50:50.711Z,58.33
2018-12-27T19:53:35.073Z,50.17
2018-12-27T19:56:17.560Z,57.73
2018-12-27T19:58:59.480Z,52.73
2018-12-27T20:01:42.990Z,55.37
2018-12-27T20:04:24.864Z,58.20
2018-12-27T20:07:06.850Z,53.57
2018-12-27T20:09:49.060Z,55.63
2018-12-27T20:12:19.368Z,54.00
2018-12-27T20:15:08.753Z,52.27
2018-12-27T20:17:50.981Z,58.50
2018-12-27T20:20:21.361Z,60.27
2018-12-27T20:22:51.674Z,63.23
2018-12-27T20:25:41.436Z,55.80
2018-12-27T20:28:25.675Z,59.77
2018-12-27T20:31:08.276Z,64.97
2018-12-27T20:33:39.882Z,62.27
2018-12-27T20:36:30.056Z,62.77
2018-12-27T20:39:12.641Z,62.90
2018-12-27T20:41:43.211Z,60.57
2018-12-27T20:44:32.703Z,64.47
2018-12-27T20:47:15.385Z,61.10
2018-12-27T20:49:46.517Z,56.63
2018-12-27T20:52:28.700Z,59.97
2018-12-27T20:55:10.651Z,61.30
2018-12-27T20:57:56.833Z,62.40
2018-12-27T21:00:39.313Z,64.90
2018-12-27T21:03:23.039Z,67.93
2018-12-27T21:05:53.331Z,68.30
2018-12-27T21:08:35.695Z,55.07
2018-12-27T21:11:17.660Z,63.33
2018-12-27T21:14:00.143Z,66.00
2018-12-27T21:16:41.761Z,68.57
2018-12-27T21:19:36.237Z,70.40
2018-12-27T21:25:20.237Z,66.67
2018-12-27T21:28:02.505Z,57.30
2018-12-27T21:30:44.360Z,66.37
2018-12-27T21:33:36.713Z,64.17
2018-12-27T21:36:18.619Z,60.73
2018-12-27T21:39:00.596Z,61.10
2018-12-27T21:41:43.140Z,73.40
2018-12-27T21:44:25.729Z,57.70
2018-12-27T21:47:07.811Z,57.07
2018-12-27T21:49:49.768Z,65.77
2018-12-27T21:52:32.125Z,60.17
2018-12-27T21:55:14.281Z,66.30
